sensor_id;sensor_type;location;lat;lon;timestamp;P1;durP1;ratioP1;P2;durP2;ratioP2
18259;SDS011;9256;52.236;5.712;2023-03-14T00:01:00;18.73;;;3.20;;
18259;SDS011;9256;52.236;5.712;2023-03-14T00:03:35;14.20;;;2.80;;
18259;SDS011;9256;52.236;5.712;2023-03-14T00:06:02;16.38;;;3.00;;
18259;SDS011;9256;52.236;5.712;2023-03-14T00:08:30;17.20;;;3.20;;
18259;SDS011;9256;52.236;5.712;2023-03-14T00:10:57;12.57;;;2.90;;
18259;SDS011;9256;52.236;5.712;2023-03-14T00:13:24;16.48;;;3.35;;
18259;SDS011;9256;52.236;5.712;2023-03-14T00:15:51;20.70;;;5.40;;
18259;SDS011;9256;52.236;5.712;2023-03-14T00:18:18;19.73;;;4.20;;
18259;SDS011;9256;52.236;5.712;2023-03-14T00:20:47;18.60;;;4.05;;
18259;SDS011;9256;52.236;5.712;2023-03-14T00:23:15;17.70;;;4.43;;
18259;SDS011;9256;52.236;5.712;2023-03-14T00:25:43;19.38;;;4.70;;
18259;SDS011;9256;52.236;5.712;2023-03-14T00:28:10;26.83;;;4.50;;
18259;SDS011;9256;52.236;5.712;2023-03-14T00:30:38;17.95;;;4.07;;
18259;SDS011;9256;52.236;5.712;2023-03-14T00:33:05;20.55;;;4.22;;
18259;SDS011;9256;52.236;5.712;2023-03-14T00:35:32;18.92;;;4.53;;
18259;SDS011;9256;52.236;5.712;2023-03-14T00:38:00;18.33;;;3.70;;
18259;SDS011;9256;52.236;5.712;2023-03-14T00:40:28;19.20;;;3.53;;
18259;SDS011;9256;52.236;5.712;2023-03-14T00:42:55;15.88;;;3.10;;
18259;SDS011;9256;52.236;5.712;2023-03-14T00:45:22;18.40;;;3.55;;
18259;SDS011;9256;52.236;5.712;2023-03-14T00:47:49;15.48;;;3.70;;
18259;SDS011;9256;52.236;5.712;2023-03-14T00:50:16;15.00;;;2.65;;
18259;SDS011;9256;52.236;5.712;2023-03-14T00:52:43;21.80;;;2.72;;
18259;SDS011;9256;52.236;5.712;2023-03-14T00:55:14;16.98;;;2.78;;
18259;SDS011;9256;52.236;5.712;2023-03-14T00:57:41;16.23;;;2.47;;
18259;SDS011;9256;52.236;5.712;2023-03-14T01:00:09;13.07;;;2.05;;
18259;SDS011;9256;52.236;5.712;2023-03-14T01:02:37;17.05;;;2.00;;
18259;SDS011;9256;52.236;5.712;2023-03-14T01:05:05;13.75;;;1.60;;
18259;SDS011;9256;52.236;5.712;2023-03-14T01:07:32;9.68;;;1.65;;
18259;SDS011;9256;52.236;5.712;2023-03-14T01:09:59;16.38;;;1.75;;
18259;SDS011;9256;52.236;5.712;2023-03-14T01:12:29;8.23;;;1.70;;
18259;SDS011;9256;52.236;5.712;2023-03-14T01:14:56;14.43;;;2.22;;
18259;SDS011;9256;52.236;5.712;2023-03-14T01:17:23;16.50;;;1.77;;
18259;SDS011;9256;52.236;5.712;2023-03-14T01:19:50;8.93;;;1.77;;
18259;SDS011;9256;52.236;5.712;2023-03-14T01:22:17;13.32;;;1.80;;
18259;SDS011;9256;52.236;5.712;2023-03-14T01:24:46;9.77;;;1.60;;
18259;SDS011;9256;52.236;5.712;2023-03-14T01:27:13;10.57;;;1.90;;
18259;SDS011;9256;52.236;5.712;2023-03-14T01:29:42;14.68;;;1.80;;
18259;SDS011;9256;52.236;5.712;2023-03-14T01:32:09;12.02;;;1.98;;
18259;SDS011;9256;52.236;5.712;2023-03-14T01:34:36;12.32;;;1.65;;
18259;SDS011;9256;52.236;5.712;2023-03-14T01:37:03;13.85;;;2.00;;
18259;SDS011;9256;52.236;5.712;2023-03-14T01:39:33;8.23;;;1.80;;
18259;SDS011;9256;52.236;5.712;2023-03-14T01:42:00;8.02;;;1.52;;
18259;SDS011;9256;52.236;5.712;2023-03-14T01:44:27;7.55;;;1.63;;
18259;SDS011;9256;52.236;5.712;2023-03-14T01:46:56;10.27;;;1.70;;
18259;SDS011;9256;52.236;5.712;2023-03-14T01:49:24;7.47;;;1.60;;
18259;SDS011;9256;52.236;5.712;2023-03-14T01:51:54;10.73;;;1.70;;
18259;SDS011;9256;52.236;5.712;2023-03-14T01:54:24;9.38;;;1.52;;
18259;SDS011;9256;52.236;5.712;2023-03-14T01:56:53;7.68;;;1.80;;
18259;SDS011;9256;52.236;5.712;2023-03-14T01:59:21;8.18;;;1.30;;
18259;SDS011;9256;52.236;5.712;2023-03-14T02:01:48;8.25;;;1.40;;
18259;SDS011;9256;52.236;5.712;2023-03-14T02:04:18;8.57;;;1.35;;
18259;SDS011;9256;52.236;5.712;2023-03-14T02:06:48;9.60;;;1.40;;
18259;SDS011;9256;52.236;5.712;2023-03-14T02:09:16;6.22;;;1.27;;
18259;SDS011;9256;52.236;5.712;2023-03-14T02:11:43;11.45;;;1.60;;
18259;SDS011;9256;52.236;5.712;2023-03-14T02:14:13;10.43;;;2.00;;
18259;SDS011;9256;52.236;5.712;2023-03-14T02:16:41;9.13;;;1.58;;
18259;SDS011;9256;52.236;5.712;2023-03-14T02:19:08;8.82;;;1.50;;
18259;SDS011;9256;52.236;5.712;2023-03-14T02:21:42;9.10;;;1.77;;
18259;SDS011;9256;52.236;5.712;2023-03-14T02:24:13;5.32;;;1.60;;
18259;SDS011;9256;52.236;5.712;2023-03-14T02:26:43;6.22;;;1.38;;
18259;SDS011;9256;52.236;5.712;2023-03-14T02:29:12;11.07;;;2.40;;
18259;SDS011;9256;52.236;5.712;2023-03-14T02:31:39;10.45;;;1.40;;
18259;SDS011;9256;52.236;5.712;2023-03-14T02:34:06;10.07;;;1.35;;
18259;SDS011;9256;52.236;5.712;2023-03-14T02:36:34;12.50;;;1.63;;
18259;SDS011;9256;52.236;5.712;2023-03-14T02:39:04;6.85;;;1.42;;
18259;SDS011;9256;52.236;5.712;2023-03-14T02:41:33;10.20;;;1.50;;
18259;SDS011;9256;52.236;5.712;2023-03-14T02:44:01;8.35;;;1.65;;
18259;SDS011;9256;52.236;5.712;2023-03-14T02:46:29;7.00;;;1.52;;
18259;SDS011;9256;52.236;5.712;2023-03-14T02:48:58;10.88;;;1.80;;
18259;SDS011;9256;52.236;5.712;2023-03-14T02:51:26;11.07;;;1.70;;
18259;SDS011;9256;52.236;5.712;2023-03-14T02:53:54;11.98;;;2.00;;
18259;SDS011;9256;52.236;5.712;2023-03-14T02:56:21;10.48;;;1.90;;
18259;SDS011;9256;52.236;5.712;2023-03-14T02:58:48;12.55;;;2.20;;
18259;SDS011;9256;52.236;5.712;2023-03-14T03:01:16;10.25;;;1.90;;
18259;SDS011;9256;52.236;5.712;2023-03-14T03:03:44;11.55;;;2.10;;
18259;SDS011;9256;52.236;5.712;2023-03-14T03:06:11;10.70;;;2.80;;
18259;SDS011;9256;52.236;5.712;2023-03-14T03:08:39;8.63;;;2.33;;
18259;SDS011;9256;52.236;5.712;2023-03-14T03:11:06;12.07;;;2.40;;
18259;SDS011;9256;52.236;5.712;2023-03-14T03:13:34;8.88;;;2.55;;
18259;SDS011;9256;52.236;5.712;2023-03-14T03:16:01;11.25;;;2.53;;
18259;SDS011;9256;52.236;5.712;2023-03-14T03:18:28;14.20;;;2.80;;
18259;SDS011;9256;52.236;5.712;2023-03-14T03:20:59;11.00;;;2.72;;
18259;SDS011;9256;52.236;5.712;2023-03-14T03:23:26;11.20;;;2.38;;
18259;SDS011;9256;52.236;5.712;2023-03-14T03:25:53;18.23;;;3.15;;
18259;SDS011;9256;52.236;5.712;2023-03-14T03:28:20;10.52;;;2.80;;
18259;SDS011;9256;52.236;5.712;2023-03-14T03:30:47;14.60;;;3.10;;
18259;SDS011;9256;52.236;5.712;2023-03-14T03:33:14;11.65;;;2.47;;
18259;SDS011;9256;52.236;5.712;2023-03-14T03:35:42;11.27;;;2.40;;
18259;SDS011;9256;52.236;5.712;2023-03-14T03:38:11;11.18;;;2.40;;
18259;SDS011;9256;52.236;5.712;2023-03-14T03:40:38;11.20;;;2.40;;
18259;SDS011;9256;52.236;5.712;2023-03-14T03:43:06;10.73;;;2.40;;
18259;SDS011;9256;52.236;5.712;2023-03-14T03:45:33;11.52;;;2.70;;
18259;SDS011;9256;52.236;5.712;2023-03-14T03:48:01;11.73;;;2.50;;
18259;SDS011;9256;52.236;5.712;2023-03-14T03:50:28;6.95;;;2.20;;
18259;SDS011;9256;52.236;5.712;2023-03-14T03:52:55;11.05;;;2.20;;
18259;SDS011;9256;52.236;5.712;2023-03-14T03:55:24;6.90;;;2.08;;
18259;SDS011;9256;52.236;5.712;2023-03-14T03:57:53;9.82;;;2.00;;
18259;SDS011;9256;52.236;5.712;2023-03-14T04:00:20;11.25;;;2.05;;
18259;SDS011;9256;52.236;5.712;2023-03-14T04:02:47;13.00;;;2.85;;
18259;SDS011;9256;52.236;5.712;2023-03-14T04:05:14;15.38;;;2.55;;
18259;SDS011;9256;52.236;5.712;2023-03-14T04:07:42;9.88;;;2.47;;
18259;SDS011;9256;52.236;5.712;2023-03-14T04:10:09;13.88;;;2.58;;
18259;SDS011;9256;52.236;5.712;2023-03-14T04:12:38;10.13;;;2.15;;
18259;SDS011;9256;52.236;5.712;2023-03-14T04:15:05;12.48;;;2.33;;
18259;SDS011;9256;52.236;5.712;2023-03-14T04:17:33;10.77;;;2.47;;
18259;SDS011;9256;52.236;5.712;2023-03-14T04:20:00;12.40;;;2.25;;
18259;SDS011;9256;52.236;5.712;2023-03-14T04:22:28;13.65;;;3.17;;
18259;SDS011;9256;52.236;5.712;2023-03-14T04:24:55;10.38;;;2.65;;
18259;SDS011;9256;52.236;5.712;2023-03-14T04:27:22;8.65;;;2.28;;
18259;SDS011;9256;52.236;5.712;2023-03-14T04:29:51;16.38;;;2.15;;
18259;SDS011;9256;52.236;5.712;2023-03-14T04:32:18;9.43;;;2.17;;
18259;SDS011;9256;52.236;5.712;2023-03-14T04:34:45;9.73;;;2.08;;
18259;SDS011;9256;52.236;5.712;2023-03-14T04:37:12;10.50;;;2.03;;
18259;SDS011;9256;52.236;5.712;2023-03-14T04:39:40;10.75;;;2.03;;
18259;SDS011;9256;52.236;5.712;2023-03-14T04:42:07;10.20;;;2.58;;
18259;SDS011;9256;52.236;5.712;2023-03-14T04:44:34;11.57;;;1.88;;
18259;SDS011;9256;52.236;5.712;2023-03-14T04:47:02;9.75;;;1.70;;
18259;SDS011;9256;52.236;5.712;2023-03-14T04:49:30;12.37;;;2.30;;
18259;SDS011;9256;52.236;5.712;2023-03-14T04:51:57;8.05;;;1.80;;
18259;SDS011;9256;52.236;5.712;2023-03-14T04:54:24;11.40;;;2.10;;
18259;SDS011;9256;52.236;5.712;2023-03-14T04:56:51;11.43;;;2.03;;
18259;SDS011;9256;52.236;5.712;2023-03-14T04:59:18;15.25;;;1.83;;
18259;SDS011;9256;52.236;5.712;2023-03-14T05:01:46;21.00;;;2.20;;
18259;SDS011;9256;52.236;5.712;2023-03-14T05:04:16;16.08;;;2.10;;
18259;SDS011;9256;52.236;5.712;2023-03-14T05:06:43;13.80;;;2.58;;
18259;SDS011;9256;52.236;5.712;2023-03-14T05:09:10;10.55;;;2.33;;
18259;SDS011;9256;52.236;5.712;2023-03-14T05:11:37;12.10;;;2.22;;
18259;SDS011;9256;52.236;5.712;2023-03-14T05:14:04;10.30;;;2.00;;
18259;SDS011;9256;52.236;5.712;2023-03-14T05:16:32;11.95;;;2.13;;
18259;SDS011;9256;52.236;5.712;2023-03-14T05:18:59;9.32;;;2.08;;
18259;SDS011;9256;52.236;5.712;2023-03-14T05:21:28;21.55;;;2.38;;
18259;SDS011;9256;52.236;5.712;2023-03-14T05:23:55;9.70;;;1.98;;
18259;SDS011;9256;52.236;5.712;2023-03-14T05:26:23;11.18;;;2.10;;
18259;SDS011;9256;52.236;5.712;2023-03-14T05:28:50;8.82;;;1.75;;
18259;SDS011;9256;52.236;5.712;2023-03-14T05:31:17;6.78;;;1.75;;
18259;SDS011;9256;52.236;5.712;2023-03-14T05:33:44;9.20;;;2.20;;
18259;SDS011;9256;52.236;5.712;2023-03-14T05:36:12;13.02;;;2.22;;
18259;SDS011;9256;52.236;5.712;2023-03-14T05:38:40;12.45;;;2.13;;
18259;SDS011;9256;52.236;5.712;2023-03-14T05:41:07;10.65;;;1.88;;
18259;SDS011;9256;52.236;5.712;2023-03-14T05:43:35;10.80;;;3.10;;
18259;SDS011;9256;52.236;5.712;2023-03-14T05:46:03;10.02;;;2.45;;
18259;SDS011;9256;52.236;5.712;2023-03-14T05:48:30;10.57;;;2.38;;
18259;SDS011;9256;52.236;5.712;2023-03-14T05:50:57;9.02;;;2.15;;
18259;SDS011;9256;52.236;5.712;2023-03-14T05:53:25;9.68;;;2.50;;
18259;SDS011;9256;52.236;5.712;2023-03-14T05:55:55;12.18;;;2.50;;
18259;SDS011;9256;52.236;5.712;2023-03-14T05:58:23;9.90;;;2.80;;
18259;SDS011;9256;52.236;5.712;2023-03-14T06:00:50;11.77;;;2.80;;
18259;SDS011;9256;52.236;5.712;2023-03-14T06:03:17;11.63;;;3.00;;
18259;SDS011;9256;52.236;5.712;2023-03-14T06:05:45;8.68;;;2.47;;
18259;SDS011;9256;52.236;5.712;2023-03-14T06:08:12;8.30;;;2.50;;
18259;SDS011;9256;52.236;5.712;2023-03-14T06:10:39;10.25;;;3.10;;
18259;SDS011;9256;52.236;5.712;2023-03-14T06:13:08;10.32;;;3.00;;
18259;SDS011;9256;52.236;5.712;2023-03-14T06:15:35;12.65;;;2.85;;
18259;SDS011;9256;52.236;5.712;2023-03-14T06:18:02;13.23;;;3.58;;
18259;SDS011;9256;52.236;5.712;2023-03-14T06:20:29;9.85;;;2.42;;
18259;SDS011;9256;52.236;5.712;2023-03-14T06:22:59;14.00;;;3.17;;
18259;SDS011;9256;52.236;5.712;2023-03-14T06:25:26;15.85;;;3.28;;
18259;SDS011;9256;52.236;5.712;2023-03-14T06:27:54;13.10;;;3.22;;
18259;SDS011;9256;52.236;5.712;2023-03-14T06:30:22;12.25;;;3.45;;
18259;SDS011;9256;52.236;5.712;2023-03-14T06:32:49;9.80;;;3.10;;
18259;SDS011;9256;52.236;5.712;2023-03-14T06:35:17;7.88;;;2.97;;
18259;SDS011;9256;52.236;5.712;2023-03-14T06:37:44;11.07;;;3.33;;
18259;SDS011;9256;52.236;5.712;2023-03-14T06:40:11;17.80;;;3.55;;
18259;SDS011;9256;52.236;5.712;2023-03-14T06:42:42;15.30;;;4.05;;
18259;SDS011;9256;52.236;5.712;2023-03-14T06:45:09;15.57;;;4.65;;
18259;SDS011;9256;52.236;5.712;2023-03-14T06:47:37;53.13;;;13.18;;
18259;SDS011;9256;52.236;5.712;2023-03-14T06:50:05;25.08;;;7.82;;
18259;SDS011;9256;52.236;5.712;2023-03-14T06:52:32;16.25;;;5.85;;
18259;SDS011;9256;52.236;5.712;2023-03-14T06:54:59;12.57;;;3.97;;
18259;SDS011;9256;52.236;5.712;2023-03-14T06:57:27;15.88;;;3.92;;
18259;SDS011;9256;52.236;5.712;2023-03-14T06:59:54;5.38;;;1.60;;
18259;SDS011;9256;52.236;5.712;2023-03-14T07:02:21;4.72;;;1.13;;
18259;SDS011;9256;52.236;5.712;2023-03-14T07:04:50;5.90;;;1.57;;
18259;SDS011;9256;52.236;5.712;2023-03-14T07:07:17;2.75;;;1.20;;
18259;SDS011;9256;52.236;5.712;2023-03-14T07:09:44;2.55;;;0.88;;
18259;SDS011;9256;52.236;5.712;2023-03-14T07:12:12;3.25;;;0.70;;
18259;SDS011;9256;52.236;5.712;2023-03-14T07:14:39;1.92;;;0.70;;
18259;SDS011;9256;52.236;5.712;2023-03-14T07:17:06;1.73;;;0.75;;
18259;SDS011;9256;52.236;5.712;2023-03-14T07:19:33;3.30;;;0.70;;
18259;SDS011;9256;52.236;5.712;2023-03-14T07:22:02;2.22;;;0.73;;
18259;SDS011;9256;52.236;5.712;2023-03-14T07:24:29;3.72;;;0.98;;
18259;SDS011;9256;52.236;5.712;2023-03-14T07:26:56;1.75;;;0.70;;
18259;SDS011;9256;52.236;5.712;2023-03-14T07:29:23;5.25;;;0.90;;
18259;SDS011;9256;52.236;5.712;2023-03-14T07:31:51;4.60;;;0.90;;
18259;SDS011;9256;52.236;5.712;2023-03-14T07:34:18;3.97;;;1.00;;
18259;SDS011;9256;52.236;5.712;2023-03-14T07:36:45;2.83;;;0.80;;
18259;SDS011;9256;52.236;5.712;2023-03-14T07:39:14;1.92;;;0.90;;
18259;SDS011;9256;52.236;5.712;2023-03-14T07:41:41;2.90;;;0.93;;
18259;SDS011;9256;52.236;5.712;2023-03-14T07:44:08;3.40;;;1.05;;
18259;SDS011;9256;52.236;5.712;2023-03-14T07:46:35;2.45;;;0.73;;
18259;SDS011;9256;52.236;5.712;2023-03-14T07:49:02;2.30;;;0.82;;
18259;SDS011;9256;52.236;5.712;2023-03-14T07:51:30;3.97;;;1.30;;
18259;SDS011;9256;52.236;5.712;2023-03-14T07:53:57;3.97;;;1.00;;
18259;SDS011;9256;52.236;5.712;2023-03-14T07:56:25;2.80;;;0.90;;
18259;SDS011;9256;52.236;5.712;2023-03-14T07:58:53;6.28;;;1.50;;
18259;SDS011;9256;52.236;5.712;2023-03-14T08:01:20;5.45;;;0.88;;
18259;SDS011;9256;52.236;5.712;2023-03-14T08:03:47;6.55;;;1.55;;
18259;SDS011;9256;52.236;5.712;2023-03-14T08:06:14;7.13;;;1.25;;
18259;SDS011;9256;52.236;5.712;2023-03-14T08:08:41;10.23;;;1.40;;
18259;SDS011;9256;52.236;5.712;2023-03-14T08:11:09;12.40;;;2.28;;
18259;SDS011;9256;52.236;5.712;2023-03-14T08:13:37;7.75;;;0.98;;
18259;SDS011;9256;52.236;5.712;2023-03-14T08:16:05;6.60;;;0.90;;
18259;SDS011;9256;52.236;5.712;2023-03-14T08:18:32;5.90;;;1.10;;
18259;SDS011;9256;52.236;5.712;2023-03-14T08:20:59;12.13;;;1.57;;
18259;SDS011;9256;52.236;5.712;2023-03-14T08:23:27;6.10;;;1.10;;
18259;SDS011;9256;52.236;5.712;2023-03-14T08:25:54;8.67;;;0.90;;
18259;SDS011;9256;52.236;5.712;2023-03-14T08:28:21;5.50;;;0.70;;
18259;SDS011;9256;52.236;5.712;2023-03-14T08:30:50;7.23;;;0.83;;
18259;SDS011;9256;52.236;5.712;2023-03-14T08:33:17;5.73;;;0.80;;
18259;SDS011;9256;52.236;5.712;2023-03-14T08:35:44;5.80;;;0.53;;
18259;SDS011;9256;52.236;5.712;2023-03-14T08:38:11;7.00;;;0.80;;
18259;SDS011;9256;52.236;5.712;2023-03-14T08:40:38;6.70;;;0.80;;
18259;SDS011;9256;52.236;5.712;2023-03-14T08:43:05;7.80;;;1.73;;
18259;SDS011;9256;52.236;5.712;2023-03-14T08:45:33;3.67;;;0.50;;
18259;SDS011;9256;52.236;5.712;2023-03-14T08:48:01;5.43;;;0.70;;
18259;SDS011;9256;52.236;5.712;2023-03-14T08:50:28;3.63;;;0.40;;
18259;SDS011;9256;52.236;5.712;2023-03-14T08:52:55;6.80;;;0.67;;
18259;SDS011;9256;52.236;5.712;2023-03-14T08:55:24;3.47;;;0.40;;
18259;SDS011;9256;52.236;5.712;2023-03-14T08:57:52;4.27;;;0.30;;
18259;SDS011;9256;52.236;5.712;2023-03-14T09:00:20;4.57;;;0.68;;
18259;SDS011;9256;52.236;5.712;2023-03-14T09:02:47;4.07;;;0.40;;
18259;SDS011;9256;52.236;5.712;2023-03-14T09:05:16;1.43;;;0.30;;
18259;SDS011;9256;52.236;5.712;2023-03-14T09:07:43;4.03;;;0.47;;
18259;SDS011;9256;52.236;5.712;2023-03-14T09:10:10;3.13;;;0.70;;
18259;SDS011;9256;52.236;5.712;2023-03-14T09:12:37;5.90;;;0.70;;
18259;SDS011;9256;52.236;5.712;2023-03-14T09:15:05;7.07;;;0.53;;
18259;SDS011;9256;52.236;5.712;2023-03-14T09:17:32;1.87;;;0.43;;
18259;SDS011;9256;52.236;5.712;2023-03-14T09:20:00;8.70;;;0.40;;
18259;SDS011;9256;52.236;5.712;2023-03-14T09:22:32;5.78;;;0.50;;
18259;SDS011;9256;52.236;5.712;2023-03-14T09:25:00;4.13;;;0.67;;
18259;SDS011;9256;52.236;5.712;2023-03-14T09:27:27;4.00;;;0.57;;
18259;SDS011;9256;52.236;5.712;2023-03-14T09:29:55;2.92;;;0.50;;
18259;SDS011;9256;52.236;5.712;2023-03-14T09:32:22;6.97;;;0.57;;
18259;SDS011;9256;52.236;5.712;2023-03-14T09:34:49;7.75;;;0.73;;
18259;SDS011;9256;52.236;5.712;2023-03-14T09:37:16;9.43;;;0.90;;
18259;SDS011;9256;52.236;5.712;2023-03-14T09:39:46;8.98;;;0.90;;
18259;SDS011;9256;52.236;5.712;2023-03-14T09:42:14;7.75;;;0.75;;
18259;SDS011;9256;52.236;5.712;2023-03-14T09:44:45;14.03;;;1.03;;
18259;SDS011;9256;52.236;5.712;2023-03-14T09:47:15;9.43;;;0.90;;
18259;SDS011;9256;52.236;5.712;2023-03-14T09:49:44;12.20;;;1.07;;
18259;SDS011;9256;52.236;5.712;2023-03-14T09:52:13;13.53;;;1.00;;
18259;SDS011;9256;52.236;5.712;2023-03-14T09:54:42;13.57;;;1.57;;
18259;SDS011;9256;52.236;5.712;2023-03-14T09:57:12;25.67;;;5.45;;
18259;SDS011;9256;52.236;5.712;2023-03-14T09:59:41;11.93;;;1.65;;
18259;SDS011;9256;52.236;5.712;2023-03-14T10:02:14;12.85;;;1.27;;
18259;SDS011;9256;52.236;5.712;2023-03-14T10:04:41;14.50;;;1.33;;
18259;SDS011;9256;52.236;5.712;2023-03-14T10:07:11;15.67;;;1.07;;
18259;SDS011;9256;52.236;5.712;2023-03-14T10:09:42;19.00;;;1.67;;
18259;SDS011;9256;52.236;5.712;2023-03-14T10:12:09;19.47;;;1.67;;
18259;SDS011;9256;52.236;5.712;2023-03-14T10:14:44;16.07;;;1.80;;
18259;SDS011;9256;52.236;5.712;2023-03-14T10:17:13;11.93;;;1.77;;
18259;SDS011;9256;52.236;5.712;2023-03-14T10:19:50;15.43;;;1.33;;
18259;SDS011;9256;52.236;5.712;2023-03-14T10:22:18;13.47;;;0.93;;
18259;SDS011;9256;52.236;5.712;2023-03-14T10:24:46;11.60;;;1.10;;
18259;SDS011;9256;52.236;5.712;2023-03-14T10:27:18;17.20;;;1.30;;
18259;SDS011;9256;52.236;5.712;2023-03-14T10:29:52;15.57;;;1.33;;
18259;SDS011;9256;52.236;5.712;2023-03-14T10:32:20;20.07;;;1.40;;
18259;SDS011;9256;52.236;5.712;2023-03-14T10:35:05;14.40;;;1.30;;
18259;SDS011;9256;52.236;5.712;2023-03-14T10:37:33;18.73;;;1.43;;
18259;SDS011;9256;52.236;5.712;2023-03-14T10:40:01;13.50;;;1.33;;
18259;SDS011;9256;52.236;5.712;2023-03-14T10:42:30;16.87;;;1.83;;
18259;SDS011;9256;52.236;5.712;2023-03-14T10:45:01;14.43;;;1.50;;
18259;SDS011;9256;52.236;5.712;2023-03-14T10:47:30;14.80;;;1.80;;
18259;SDS011;9256;52.236;5.712;2023-03-14T10:50:18;15.57;;;1.60;;
18259;SDS011;9256;52.236;5.712;2023-03-14T10:52:48;19.93;;;1.70;;
18259;SDS011;9256;52.236;5.712;2023-03-14T10:55:16;15.40;;;1.90;;
18259;SDS011;9256;52.236;5.712;2023-03-14T10:57:43;17.50;;;1.50;;
18259;SDS011;9256;52.236;5.712;2023-03-14T11:00:15;21.97;;;2.80;;
18259;SDS011;9256;52.236;5.712;2023-03-14T11:02:56;21.00;;;2.22;;
18259;SDS011;9256;52.236;5.712;2023-03-14T11:05:29;15.85;;;2.13;;
18259;SDS011;9256;52.236;5.712;2023-03-14T11:07:59;15.97;;;1.80;;
18259;SDS011;9256;52.236;5.712;2023-03-14T11:10:31;20.50;;;2.07;;
18259;SDS011;9256;52.236;5.712;2023-03-14T11:13:01;16.70;;;1.37;;
18259;SDS011;9256;52.236;5.712;2023-03-14T11:15:34;14.55;;;1.80;;
18259;SDS011;9256;52.236;5.712;2023-03-14T11:18:15;17.07;;;1.23;;
18259;SDS011;9256;52.236;5.712;2023-03-14T11:20:45;20.30;;;1.77;;
18259;SDS011;9256;52.236;5.712;2023-03-14T11:23:16;16.57;;;1.40;;
18259;SDS011;9256;52.236;5.712;2023-03-14T11:25:46;16.90;;;1.90;;
18259;SDS011;9256;52.236;5.712;2023-03-14T11:28:17;12.20;;;1.10;;
18259;SDS011;9256;52.236;5.712;2023-03-14T11:30:48;13.83;;;1.17;;
18259;SDS011;9256;52.236;5.712;2023-03-14T11:33:17;14.17;;;1.27;;
18259;SDS011;9256;52.236;5.712;2023-03-14T11:35:47;20.35;;;1.75;;
18259;SDS011;9256;52.236;5.712;2023-03-14T11:38:19;10.55;;;1.00;;
18259;SDS011;9256;52.236;5.712;2023-03-14T11:40:54;13.00;;;1.50;;
18259;SDS011;9256;52.236;5.712;2023-03-14T11:43:24;14.82;;;1.58;;
18259;SDS011;9256;52.236;5.712;2023-03-14T11:45:56;17.37;;;1.40;;
18259;SDS011;9256;52.236;5.712;2023-03-14T11:48:28;9.48;;;1.05;;
18259;SDS011;9256;52.236;5.712;2023-03-14T11:50:56;8.60;;;1.20;;
18259;SDS011;9256;52.236;5.712;2023-03-14T11:53:29;10.40;;;1.23;;
18259;SDS011;9256;52.236;5.712;2023-03-14T11:55:57;5.47;;;0.85;;
18259;SDS011;9256;52.236;5.712;2023-03-14T11:58:25;6.15;;;0.70;;
18259;SDS011;9256;52.236;5.712;2023-03-14T12:00:53;5.90;;;0.93;;
18259;SDS011;9256;52.236;5.712;2023-03-14T12:03:23;9.20;;;0.90;;
18259;SDS011;9256;52.236;5.712;2023-03-14T12:05:55;9.30;;;0.90;;
18259;SDS011;9256;52.236;5.712;2023-03-14T12:11:10;11.25;;;1.10;;
18259;SDS011;9256;52.236;5.712;2023-03-14T12:13:39;8.75;;;1.20;;
18259;SDS011;9256;52.236;5.712;2023-03-14T12:16:25;10.15;;;1.20;;
18259;SDS011;9256;52.236;5.712;2023-03-14T12:18:54;9.38;;;1.10;;
18259;SDS011;9256;52.236;5.712;2023-03-14T12:21:41;12.13;;;1.20;;
18259;SDS011;9256;52.236;5.712;2023-03-14T12:24:14;15.38;;;1.30;;
18259;SDS011;9256;52.236;5.712;2023-03-14T12:26:46;8.05;;;1.13;;
18259;SDS011;9256;52.236;5.712;2023-03-14T12:29:15;6.10;;;1.00;;
18259;SDS011;9256;52.236;5.712;2023-03-14T12:31:43;6.47;;;0.80;;
18259;SDS011;9256;52.236;5.712;2023-03-14T12:34:29;7.78;;;0.80;;
18259;SDS011;9256;52.236;5.712;2023-03-14T12:37:10;7.40;;;1.35;;
18259;SDS011;9256;52.236;5.712;2023-03-14T12:39:51;8.13;;;1.00;;
18259;SDS011;9256;52.236;5.712;2023-03-14T12:42:35;7.72;;;0.90;;
18259;SDS011;9256;52.236;5.712;2023-03-14T12:45:21;7.30;;;0.98;;
18259;SDS011;9256;52.236;5.712;2023-03-14T12:47:53;7.38;;;0.80;;
18259;SDS011;9256;52.236;5.712;2023-03-14T12:50:25;6.55;;;0.98;;
18259;SDS011;9256;52.236;5.712;2023-03-14T12:55:39;4.55;;;0.70;;
18259;SDS011;9256;52.236;5.712;2023-03-14T12:58:11;5.53;;;0.63;;
18259;SDS011;9256;52.236;5.712;2023-03-14T13:00:41;4.28;;;0.73;;
18259;SDS011;9256;52.236;5.712;2023-03-14T13:03:17;5.28;;;0.82;;
18259;SDS011;9256;52.236;5.712;2023-03-14T13:05:55;12.13;;;1.13;;
18259;SDS011;9256;52.236;5.712;2023-03-14T13:08:34;15.32;;;2.50;;
18259;SDS011;9256;52.236;5.712;2023-03-14T13:11:02;10.23;;;1.27;;
18259;SDS011;9256;52.236;5.712;2023-03-14T13:13:31;9.48;;;1.50;;
18259;SDS011;9256;52.236;5.712;2023-03-14T13:16:01;9.80;;;1.30;;
18259;SDS011;9256;52.236;5.712;2023-03-14T13:18:30;3.97;;;0.70;;
18259;SDS011;9256;52.236;5.712;2023-03-14T13:21:02;3.05;;;0.60;;
18259;SDS011;9256;52.236;5.712;2023-03-14T13:23:31;8.75;;;0.80;;
18259;SDS011;9256;52.236;5.712;2023-03-14T13:25:59;7.03;;;0.98;;
18259;SDS011;9256;52.236;5.712;2023-03-14T13:28:26;4.20;;;0.60;;
18259;SDS011;9256;52.236;5.712;2023-03-14T13:30:55;4.25;;;0.70;;
18259;SDS011;9256;52.236;5.712;2023-03-14T13:33:23;7.65;;;0.80;;
18259;SDS011;9256;52.236;5.712;2023-03-14T13:35:54;6.45;;;0.70;;
18259;SDS011;9256;52.236;5.712;2023-03-14T13:38:24;8.15;;;1.25;;
18259;SDS011;9256;52.236;5.712;2023-03-14T13:40:51;8.85;;;0.85;;
18259;SDS011;9256;52.236;5.712;2023-03-14T13:43:25;6.97;;;0.93;;
18259;SDS011;9256;52.236;5.712;2023-03-14T13:45:53;5.55;;;1.00;;
18259;SDS011;9256;52.236;5.712;2023-03-14T13:48:21;5.50;;;0.82;;
18259;SDS011;9256;52.236;5.712;2023-03-14T13:50:50;5.10;;;0.77;;
18259;SDS011;9256;52.236;5.712;2023-03-14T13:53:17;8.45;;;0.52;;
18259;SDS011;9256;52.236;5.712;2023-03-14T13:55:48;3.60;;;0.65;;
18259;SDS011;9256;52.236;5.712;2023-03-14T13:58:25;3.30;;;0.68;;
18259;SDS011;9256;52.236;5.712;2023-03-14T14:00:54;6.45;;;1.10;;
18259;SDS011;9256;52.236;5.712;2023-03-14T14:03:22;9.25;;;0.90;;
18259;SDS011;9256;52.236;5.712;2023-03-14T14:05:49;8.77;;;0.88;;
18259;SDS011;9256;52.236;5.712;2023-03-14T14:08:16;7.13;;;0.60;;
18259;SDS011;9256;52.236;5.712;2023-03-14T14:10:44;11.55;;;1.17;;
18259;SDS011;9256;52.236;5.712;2023-03-14T14:13:16;4.95;;;0.75;;
18259;SDS011;9256;52.236;5.712;2023-03-14T14:15:45;9.88;;;0.70;;
18259;SDS011;9256;52.236;5.712;2023-03-14T14:18:13;3.17;;;0.75;;
18259;SDS011;9256;52.236;5.712;2023-03-14T14:20:42;5.43;;;0.63;;
18259;SDS011;9256;52.236;5.712;2023-03-14T14:23:10;3.33;;;0.57;;
18259;SDS011;9256;52.236;5.712;2023-03-14T14:25:38;5.72;;;0.60;;
18259;SDS011;9256;52.236;5.712;2023-03-14T14:28:17;5.95;;;0.60;;
18259;SDS011;9256;52.236;5.712;2023-03-14T14:30:44;4.72;;;0.70;;
18259;SDS011;9256;52.236;5.712;2023-03-14T14:33:16;3.47;;;0.57;;
18259;SDS011;9256;52.236;5.712;2023-03-14T14:35:49;4.65;;;0.70;;
18259;SDS011;9256;52.236;5.712;2023-03-14T14:38:17;3.15;;;0.73;;
18259;SDS011;9256;52.236;5.712;2023-03-14T14:40:46;7.00;;;0.60;;
18259;SDS011;9256;52.236;5.712;2023-03-14T14:43:16;3.78;;;0.50;;
18259;SDS011;9256;52.236;5.712;2023-03-14T14:45:45;5.47;;;0.57;;
18259;SDS011;9256;52.236;5.712;2023-03-14T14:48:13;5.97;;;0.90;;
18259;SDS011;9256;52.236;5.712;2023-03-14T14:50:48;4.57;;;0.90;;
18259;SDS011;9256;52.236;5.712;2023-03-14T14:53:20;6.22;;;0.80;;
18259;SDS011;9256;52.236;5.712;2023-03-14T14:55:50;9.60;;;0.80;;
18259;SDS011;9256;52.236;5.712;2023-03-14T14:58:20;7.80;;;0.70;;
18259;SDS011;9256;52.236;5.712;2023-03-14T15:00:50;7.93;;;0.85;;
18259;SDS011;9256;52.236;5.712;2023-03-14T15:03:18;8.52;;;1.67;;
18259;SDS011;9256;52.236;5.712;2023-03-14T15:05:45;8.63;;;0.90;;
18259;SDS011;9256;52.236;5.712;2023-03-14T15:08:13;6.40;;;0.98;;
18259;SDS011;9256;52.236;5.712;2023-03-14T15:10:40;13.13;;;1.80;;